Time;durP1;ratioP1;P1;durP2;ratioP2;P2;SDS_P1;SDS_P2;PMS_P1;PMS_P2;Temp;Humidity;BMP_temperature;BMP_pressure;BME280_temperature;BME280_humidity;BME280_pressure;Samples;Min_cycle;Max_cycle;Signal;HPM_P1;HPM_P2
2021/11/22 00:02:42;;;;;;;1.93;1.33;;;;;;;7.01;74.39;101803.50;6222007;28;20201;-65
2021/11/22 00:06:05;;;;;;;2.27;1.13;;;;;;;7.11;74.41;101799.41;6227018;28;20331;-64
2021/11/22 00:09:26;;;;;;;2.23;1.27;;;;;;;7.06;74.26;101806.22;6230278;28;20229;-64
2021/11/22 00:12:48;;;;;;;2.43;0.93;;;;;;;7.03;74.02;101800.97;6228079;28;20220;-64
2021/11/22 00:16:09;;;;;;;1.30;1.20;;;;;;;7.02;73.56;101805.28;6238244;28;20672;-64
2021/11/22 00:19:30;;;;;;;1.37;1.17;;;;;;;6.93;74.40;101819.75;6239389;28;20275;-65
2021/11/22 00:22:53;;;;;;;1.70;1.27;;;;;;;6.97;74.20;101825.00;6238143;28;20201;-64
2021/11/22 00:26:14;;;;;;;7.17;1.37;;;;;;;7.00;73.89;101834.53;6236027;28;20229;-64
2021/11/22 00:29:35;;;;;;;2.73;1.00;;;;;;;6.94;73.99;101832.72;6233179;28;20228;-63
2021/11/22 00:33:09;;;;;;;1.50;1.13;;;;;;;6.98;74.22;101838.81;6238084;28;20784;-64
2021/11/22 00:36:55;;;;;;;1.70;0.80;;;;;;;6.93;74.23;101845.63;6223856;28;20225;-64
2021/11/22 00:40:18;;;;;;;2.77;1.67;;;;;;;6.84;74.22;101841.09;6238555;28;20216;-64
2021/11/22 00:43:39;;;;;;;1.13;0.90;;;;;;;6.81;74.55;101846.25;6235626;28;20200;-63
2021/11/22 00:47:00;;;;;;;1.03;1.03;;;;;;;6.76;74.39;101853.00;6236299;28;20216;-64
2021/11/22 00:50:21;;;;;;;1.43;0.73;;;;;;;6.76;74.37;101859.06;6236682;28;20228;-64
2021/11/22 00:53:44;;;;;;;2.40;1.20;;;;;;;6.73;74.24;101871.06;6235073;28;21051;-64
2021/11/22 00:57:07;;;;;;;1.90;1.60;;;;;;;6.70;74.02;101871.88;6238927;28;20192;-64
2021/11/22 01:00:28;;;;;;;1.40;1.30;;;;;;;6.65;74.43;101876.03;6233784;28;20311;-64
2021/11/22 01:03:49;;;;;;;1.00;1.00;;;;;;;6.86;73.13;101874.00;6232607;28;20237;-64
2021/11/22 01:07:10;;;;;;;2.83;0.90;;;;;;;6.65;74.24;101883.81;6237634;28;20248;-64
2021/11/22 01:10:31;;;;;;;1.73;0.77;;;;;;;6.57;74.00;101898.28;6235542;28;20345;-63
2021/11/22 01:13:53;;;;;;;1.60;0.80;;;;;;;6.76;73.30;101905.66;6235263;28;20271;-64
2021/11/22 01:17:15;;;;;;;1.37;1.00;;;;;;;6.76;72.90;101918.59;6236568;28;20205;-64
2021/11/22 01:20:37;;;;;;;4.50;1.23;;;;;;;6.57;73.31;101924.16;6236542;28;20225;-64
2021/11/22 01:23:57;;;;;;;1.33;1.00;;;;;;;6.57;73.17;101934.53;6237469;28;20228;-64
2021/11/22 01:27:19;;;;;;;1.73;1.00;;;;;;;6.58;73.48;101937.16;6236716;28;20205;-64
2021/11/22 01:30:41;;;;;;;4.03;1.00;;;;;;;6.42;74.00;101941.06;6235312;28;20259;-65
2021/11/22 01:34:02;;;;;;;2.83;0.97;;;;;;;6.29;74.06;101944.16;6236350;28;20497;-64
2021/11/22 01:37:24;;;;;;;1.87;0.80;;;;;;;6.41;73.64;101960.00;6238240;28;20506;-63
2021/11/22 01:40:47;;;;;;;2.73;0.80;;;;;;;6.42;73.84;101958.31;6235897;28;20224;-64
2021/11/22 01:44:07;;;;;;;1.40;1.20;;;;;;;6.47;72.91;101959.28;6237781;28;20307;-63
2021/11/22 01:47:30;;;;;;;2.07;0.90;;;;;;;6.33;73.46;101969.28;6235224;28;20205;-64
2021/11/22 01:50:52;;;;;;;1.70;1.20;;;;;;;6.21;73.86;101976.72;6234167;28;20240;-63
2021/11/22 01:54:16;;;;;;;1.83;1.10;;;;;;;6.36;73.23;101977.13;6236545;28;20220;-63
2021/11/22 01:57:37;;;;;;;1.40;1.27;;;;;;;6.21;73.42;101976.72;6229991;28;20260;-64
2021/11/22 02:00:58;;;;;;;1.47;1.20;;;;;;;6.14;74.48;101985.13;6231419;28;20224;-63
2021/11/22 02:04:20;;;;;;;2.57;1.00;;;;;;;6.05;74.73;101993.53;6219443;28;20228;-63
2021/11/22 02:07:42;;;;;;;2.70;1.37;;;;;;;6.16;74.02;102004.16;6229916;28;20232;-63
2021/11/22 02:11:04;;;;;;;2.23;0.83;;;;;;;6.03;74.43;102003.81;6233365;28;20620;-64
2021/11/22 02:14:25;;;;;;;1.40;1.07;;;;;;;6.13;73.87;102010.13;6237410;28;20507;-64
2021/11/22 02:17:48;;;;;;;2.47;1.10;;;;;;;6.13;73.77;102006.66;6236600;28;20713;-64
2021/11/22 02:21:11;;;;;;;1.57;1.00;;;;;;;6.08;74.11;102009.97;6239618;28;20318;-64
2021/11/22 02:24:32;;;;;;;3.33;1.23;;;;;;;6.20;73.52;102013.75;6237313;28;20255;-64
2021/11/22 02:27:53;;;;;;;1.43;0.80;;;;;;;6.15;73.64;102017.94;6235072;28;20838;-64
2021/11/22 02:31:14;;;;;;;2.73;1.20;;;;;;;6.02;73.39;102021.88;6235414;28;20224;-64
2021/11/22 02:34:35;;;;;;;1.90;1.03;;;;;;;6.06;73.62;102019.41;6236188;28;20225;-64
2021/11/22 02:37:57;;;;;;;1.67;0.70;;;;;;;6.01;73.86;102027.88;6237093;28;20209;-64
2021/11/22 02:41:18;;;;;;;1.90;1.00;;;;;;;6.01;73.82;102036.53;6234627;28;20852;-64
2021/11/22 02:44:39;;;;;;;2.27;1.13;;;;;;;5.95;74.13;102036.31;6236526;28;20341;-65
2021/11/22 02:48:00;;;;;;;1.13;0.97;;;;;;;5.91;74.12;102047.38;6234902;28;20205;-64
2021/11/22 02:51:21;;;;;;;2.53;1.30;;;;;;;5.86;74.85;102056.72;6232711;28;20229;-65
2021/11/22 02:54:44;;;;;;;3.10;2.40;;;;;;;5.81;74.29;102059.16;6219440;28;20853;-64
2021/11/22 02:58:05;;;;;;;4.77;4.40;;;;;;;5.80;75.00;102061.72;6243186;28;21560;-63
2021/11/22 03:01:26;;;;;;;6.10;5.50;;;;;;;5.88;74.12;102061.09;6235518;28;20488;-63
2021/11/22 03:04:47;;;;;;;6.93;6.30;;;;;;;5.71;75.28;102068.34;6233580;28;20228;-63
2021/11/22 03:08:08;;;;;;;10.03;7.13;;;;;;;5.82;74.63;102070.38;6240342;28;20224;-63
2021/11/22 03:11:30;;;;;;;12.87;8.50;;;;;;;5.80;74.59;102066.88;6239330;28;20252;-64
2021/11/22 03:14:51;;;;;;;8.30;7.50;;;;;;;5.77;74.59;102075.41;6235356;28;20653;-64
2021/11/22 03:18:12;;;;;;;6.37;5.77;;;;;;;5.73;75.37;102073.56;6238399;28;20268;-63
2021/11/22 03:21:33;;;;;;;5.23;4.73;;;;;;;5.65;75.27;102075.91;6234062;28;20303;-63
2021/11/22 03:24:54;;;;;;;5.83;3.57;;;;;;;5.61;75.46;102076.63;6240277;28;20228;-63
2021/11/22 03:28:17;;;;;;;3.20;2.40;;;;;;;5.60;75.80;102086.91;6239517;28;20220;-63
2021/11/22 03:31:40;;;;;;;2.33;2.13;;;;;;;5.58;75.84;102086.00;6235726;28;20250;-64
2021/11/22 03:35:01;;;;;;;3.23;1.90;;;;;;;5.55;76.20;102091.94;6238928;28;20553;-63
2021/11/22 03:38:25;;;;;;;3.43;1.77;;;;;;;5.60;75.73;102090.38;6237767;28;20209;-63
2021/11/22 03:41:46;;;;;;;2.20;1.93;;;;;;;5.63;75.38;102098.25;6242720;28;20212;-64
2021/11/22 03:45:10;;;;;;;2.17;1.77;;;;;;;5.64;75.07;102092.25;6239786;28;20561;-64
2021/11/22 03:48:33;;;;;;;4.23;1.90;;;;;;;5.72;74.67;102093.38;6241980;28;20271;-63
2021/11/22 03:51:54;;;;;;;2.50;1.80;;;;;;;5.76;74.62;102096.94;6484242;23;20274;-63
2021/11/22 03:55:15;;;;;;;4.10;2.70;;;;;;;5.55;75.71;102102.28;6195657;28;20316;-64
2021/11/22 03:58:36;;;;;;;3.10;1.50;;;;;;;5.69;75.32;102101.00;6191091;28;20583;-63
2021/11/22 04:01:58;;;;;;;2.07;1.60;;;;;;;5.63;75.67;102106.00;6212465;28;20202;-63
2021/11/22 04:05:19;;;;;;;2.67;2.23;;;;;;;5.50;76.13;102119.34;6197587;28;20628;-64
2021/11/22 04:08:41;;;;;;;4.80;1.30;;;;;;;5.71;77.41;102114.00;6191469;28;20239;-64
2021/11/22 04:12:03;;;;;;;13.43;12.03;;;;;;;5.93;76.63;102133.63;6214095;28;20201;-63
2021/11/22 04:15:24;;;;;;;13.77;11.13;;;;;;;5.72;76.88;102132.13;6216073;28;20684;-64
2021/11/22 04:18:47;;;;;;;11.30;10.07;;;;;;;5.73;75.90;102128.72;6219499;28;20234;-64
2021/11/22 04:22:08;;;;;;;4.47;2.57;;;;;;;5.56;76.08;102132.47;6211875;28;20595;-62
2021/11/22 04:25:29;;;;;;;3.43;2.00;;;;;;;5.55;75.96;102128.13;6214262;28;20233;-64
2021/11/22 04:28:50;;;;;;;3.23;1.83;;;;;;;5.48;76.61;102136.50;6211710;28;20630;-64
2021/11/22 04:32:11;;;;;;;2.87;2.57;;;;;;;5.46;76.70;102135.56;6211367;28;20284;-64
2021/11/22 04:35:33;;;;;;;2.40;2.00;;;;;;;5.38;77.49;102147.38;6213234;28;20241;-64
2021/11/22 04:38:54;;;;;;;1.63;1.50;;;;;;;5.18;77.85;102151.88;6214982;28;20315;-64
2021/11/22 04:42:15;;;;;;;2.97;1.97;;;;;;;5.30;77.53;102147.97;6214904;28;20239;-63
2021/11/22 04:45:36;;;;;;;23.97;20.83;;;;;;;5.26;77.87;102165.91;6213076;28;20541;-63
2021/11/22 04:48:57;;;;;;;14.10;12.80;;;;;;;5.17;78.11;102171.63;6224012;28;20241;-62
2021/11/22 04:52:21;;;;;;;8.13;4.50;;;;;;;5.15;78.81;102180.16;6194117;28;20236;-63
2021/11/22 04:55:42;;;;;;;2.93;2.00;;;;;;;5.13;79.10;102180.97;6212005;28;20284;-64
2021/11/22 04:59:03;;;;;;;4.83;1.80;;;;;;;5.09;79.41;102186.84;6210985;28;20238;-64
2021/11/22 05:02:24;;;;;;;2.67;1.97;;;;;;;5.14;78.91;102189.63;6206326;28;20301;-63
2021/11/22 05:05:45;;;;;;;2.77;1.57;;;;;;;4.99;79.93;102192.53;6211802;28;20268;-63
2021/11/22 05:09:08;;;;;;;7.77;2.13;;;;;;;5.09;79.34;102186.84;6210979;28;20226;-63
2021/11/22 05:12:29;;;;;;;4.53;3.43;;;;;;;5.25;80.25;102195.13;6207308;28;20209;-64
2021/11/22 05:15:50;;;;;;;18.53;16.83;;;;;;;5.06;80.18;102198.78;6207424;28;20241;-65
2021/11/22 05:19:12;;;;;;;7.97;6.60;;;;;;;5.00;79.85;102204.63;6209070;28;20323;-65
2021/11/22 05:22:33;;;;;;;4.50;3.20;;;;;;;5.20;79.21;102215.66;6203918;28;20316;-64
2021/11/22 05:25:55;;;;;;;3.63;2.10;;;;;;;5.13;79.91;102205.94;6207122;28;20233;-65
2021/11/22 05:29:17;;;;;;;19.77;17.77;;;;;;;5.17;79.54;102218.13;6205064;28;20233;-65
2021/11/22 05:32:38;;;;;;;21.00;18.90;;;;;;;5.10;79.46;102227.38;6206021;28;20490;-63
2021/11/22 05:35:59;;;;;;;5.20;4.70;;;;;;;5.18;79.75;102226.78;6207446;28;20324;-63
2021/11/22 05:39:20;;;;;;;4.07;3.30;;;;;;;5.08;80.02;102226.44;6210918;28;20229;-63
2021/11/22 05:42:42;;;;;;;2.73;2.47;;;;;;;5.09;79.86;102235.03;6209267;28;20284;-64
2021/11/22 05:46:04;;;;;;;3.60;3.03;;;;;;;5.02;80.63;102235.63;6207591;28;20316;-64
2021/11/22 05:49:26;;;;;;;3.17;2.80;;;;;;;5.13;80.00;102242.94;6205730;28;20234;-65
2021/11/22 05:52:51;;;;;;;5.30;4.60;;;;;;;5.01;80.48;102247.69;6202133;28;20230;-63
2021/11/22 05:56:12;;;;;;;4.47;3.10;;;;;;;5.14;79.79;102243.84;6198037;28;20641;-64
2021/11/22 05:59:35;;;;;;;3.37;3.07;;;;;;;5.14;80.00;102249.03;6205421;28;20232;-64
2021/11/22 06:02:56;;;;;;;5.97;2.80;;;;;;;5.19;79.51;102255.22;6199092;28;20190;-65
2021/11/22 06:06:17;;;;;;;4.07;2.50;;;;;;;5.16;79.40;102272.28;6202743;28;20237;-64
2021/11/22 06:09:38;;;;;;;3.03;2.73;;;;;;;5.13;78.81;102273.06;6204185;28;20278;-64
2021/11/22 06:12:59;;;;;;;2.73;2.37;;;;;;;4.97;79.74;102274.22;6191983;28;20247;-66
2021/11/22 06:16:22;;;;;;;3.60;2.70;;;;;;;4.92;80.15;102268.91;6206778;28;20240;-63
2021/11/22 06:19:43;;;;;;;3.30;3.00;;;;;;;4.96;80.50;102281.91;6201017;28;20234;-64
2021/11/22 06:23:04;;;;;;;5.00;2.80;;;;;;;4.93;80.17;102286.13;6199405;28;20194;-64
2021/11/22 06:26:25;;;;;;;3.40;3.20;;;;;;;4.94;79.95;102292.16;6208904;28;20232;-65
2021/11/22 06:29:46;;;;;;;3.43;2.87;;;;;;;4.91;80.37;102292.94;6205012;28;20233;-65
2021/11/22 06:33:09;;;;;;;3.47;2.63;;;;;;;4.96;79.27;102294.81;6212225;28;20202;-64
2021/11/22 06:36:30;;;;;;;17.63;13.90;;;;;;;4.87;79.84;102310.84;6206931;28;20225;-64
2021/11/22 06:39:51;;;;;;;44.73;39.90;;;;;;;4.97;80.26;102319.81;6201971;28;20241;-64
2021/11/22 06:43:12;;;;;;;15.63;14.13;;;;;;;4.90;80.20;102321.25;6197678;28;20202;-64
2021/11/22 06:46:33;;;;;;;4.40;4.00;;;;;;;4.84;80.31;102327.06;6213064;28;20311;-64
2021/11/22 06:49:57;;;;;;;4.00;3.20;;;;;;;4.89;80.93;102329.84;6210279;28;20248;-64
2021/11/22 06:53:21;;;;;;;7.37;3.77;;;;;;;4.91;80.85;102334.25;6199453;28;20241;-64
2021/11/22 06:56:43;;;;;;;4.20;3.30;;;;;;;4.84;80.42;102342.56;6204801;28;20229;-64
2021/11/22 07:00:07;;;;;;;6.23;3.57;;;;;;;4.98;80.09;102344.78;6215118;28;20225;-64
2021/11/22 07:03:29;;;;;;;7.27;4.20;;;;;;;4.99;79.63;102346.56;6212307;28;20209;-64
2021/11/22 07:06:51;;;;;;;3.80;3.10;;;;;;;4.78;80.06;102347.50;6212193;28;20205;-64
2021/11/22 07:10:13;;;;;;;5.03;4.57;;;;;;;4.80;80.92;102351.00;6209276;28;20261;-64
2021/11/22 07:13:35;;;;;;;4.53;3.00;;;;;;;4.87;80.51;102358.19;6204592;28;20194;-63
2021/11/22 07:16:56;;;;;;;5.37;3.37;;;;;;;4.95;80.55;102365.34;6205941;28;20198;-64
2021/11/22 07:20:17;;;;;;;4.47;3.20;;;;;;;4.96;79.93;102367.09;6204971;28;20260;-64
2021/11/22 07:23:39;;;;;;;4.57;3.07;;;;;;;4.98;80.24;102373.19;6209305;28;20189;-64
2021/11/22 07:27:01;;;;;;;7.20;4.70;;;;;;;5.08;79.24;102378.78;6211049;28;20197;-64
2021/11/22 07:30:22;;;;;;;35.37;29.57;;;;;;;5.15;78.51;102384.19;6208077;28;20343;-65
2021/11/22 07:33:43;;;;;;;18.50;16.57;;;;;;;5.28;78.68;102397.63;6188942;28;20329;-64
2021/11/22 07:37:04;;;;;;;7.77;6.30;;;;;;;5.24;78.26;102393.16;6203436;28;20227;-64
2021/11/22 07:40:26;;;;;;;7.13;3.80;;;;;;;5.23;78.47;102393.97;6196758;28;20622;-64
2021/11/22 07:43:47;;;;;;;6.23;3.87;;;;;;;5.03;79.37;102394.94;6193596;28;20225;-62
2021/11/22 07:47:09;;;;;;;5.70;4.50;;;;;;;5.39;77.98;102407.47;6205655;28;20213;-64
2021/11/22 07:50:31;;;;;;;6.07;3.73;;;;;;;5.35;77.71;102415.94;6203857;28;20233;-64
2021/11/22 07:53:53;;;;;;;4.63;3.40;;;;;;;5.49;77.28;102415.63;6203060;28;20230;-64
2021/11/22 07:57:15;;;;;;;4.77;3.27;;;;;;;5.53;77.34;102414.94;6206623;28;20199;-64
2021/11/22 08:00:36;;;;;;;3.80;3.50;;;;;;;5.91;76.85;102414.56;6196078;28;20233;-63
2021/11/22 08:03:57;;;;;;;6.33;4.20;;;;;;;7.18;74.08;102412.72;6211071;28;20225;-63
2021/11/22 08:07:20;;;;;;;4.67;3.43;;;;;;;10.68;58.30;102413.94;6210818;28;20517;-64
2021/11/22 08:10:42;;;;;;;3.07;2.73;;;;;;;12.14;51.77;102409.78;6203706;28;20268;-63
2021/11/22 08:14:04;;;;;;;3.77;2.67;;;;;;;12.29;48.76;102407.31;6207331;28;20613;-63
2021/11/22 08:17:26;;;;;;;5.77;2.83;;;;;;;13.25;46.45;102408.00;6209333;28;20643;-64
2021/11/22 08:20:47;;;;;;;2.97;2.77;;;;;;;15.21;41.23;102406.53;6214928;28;20254;-64
2021/11/22 08:24:08;;;;;;;2.80;2.47;;;;;;;15.29;39.89;102416.09;6212791;28;20336;-64
2021/11/22 08:27:29;;;;;;;2.55;2.25;;;;;;;16.05;38.20;102421.91;6211308;28;20190;-63
2021/11/22 08:30:52;;;;;;;6.28;4.50;;;;;;;16.23;37.48;102418.28;6197871;28;20233;-64
2021/11/22 08:34:13;;;;;;;37.58;34.17;;;;;;;18.01;34.56;102419.91;6203149;28;20391;-65
2021/11/22 08:37:34;;;;;;;14.13;12.80;;;;;;;19.01;33.61;102418.28;6202912;28;21978;-63
2021/11/22 08:40:55;;;;;;;6.25;4.68;;;;;;;16.91;35.42;102418.59;6198566;28;20225;-65
2021/11/22 08:44:17;;;;;;;4.57;3.67;;;;;;;17.08;35.12;102436.84;6201717;28;20288;-66
2021/11/22 08:47:40;;;;;;;4.55;3.30;;;;;;;18.05;33.32;102440.09;6200778;28;20209;-65
2021/11/22 08:51:03;;;;;;;2.95;2.65;;;;;;;18.10;33.44;102440.88;6195709;28;20229;-64
2021/11/22 08:54:25;;;;;;;4.18;3.15;;;;;;;17.71;34.32;102440.50;6204810;28;20233;-64
2021/11/22 08:57:46;;;;;;;3.72;3.08;;;;;;;18.18;33.00;102449.53;6206984;28;20189;-64
2021/11/22 09:01:07;;;;;;;4.85;3.35;;;;;;;18.18;33.59;102453.94;6209374;28;20221;-64
2021/11/22 09:04:30;;;;;;;6.75;3.35;;;;;;;18.12;33.27;102454.03;6199989;28;20607;-63
2021/11/22 09:07:51;;;;;;;5.72;3.13;;;;;;;18.35;32.44;102456.31;6199165;28;20563;-64
2021/11/22 09:11:12;;;;;;;3.45;2.90;;;;;;;18.46;32.63;102459.66;6194508;28;20234;-64
2021/11/22 09:14:33;;;;;;;4.32;3.13;;;;;;;18.69;32.16;102460.16;6201766;28;20248;-64
2021/11/22 09:17:54;;;;;;;4.22;2.92;;;;;;;19.28;31.42;102467.03;6192748;28;20206;-64
2021/11/22 09:21:16;;;;;;;4.43;2.58;;;;;;;18.84;31.69;102471.38;6188745;28;20233;-64
2021/11/22 09:24:37;;;;;;;4.28;3.47;;;;;;;19.06;32.13;102467.47;6194144;28;20229;-64
2021/11/22 09:27:59;;;;;;;18.45;16.73;;;;;;;19.38;30.95;102479.16;6207504;28;20193;-64
2021/11/22 09:31:20;;;;;;;26.63;24.23;;;;;;;21.72;28.46;102475.31;6202969;28;20316;-64
2021/11/22 09:34:41;;;;;;;5.05;4.22;;;;;;;19.72;30.06;102482.94;6207945;28;20238;-63
2021/11/22 09:38:03;;;;;;;3.72;2.85;;;;;;;20.33;29.11;102491.28;6213518;28;20221;-64
2021/11/22 09:41:27;;;;;;;3.75;2.80;;;;;;;20.62;28.75;102494.13;6181011;28;20316;-64
2021/11/22 09:44:49;;;;;;;3.28;2.97;;;;;;;21.56;27.79;102488.16;6206675;28;20256;-64
2021/11/22 09:48:10;;;;;;;3.97;2.95;;;;;;;21.15;27.54;102495.41;6200513;28;20201;-65
2021/11/22 09:51:31;;;;;;;5.90;2.70;;;;;;;20.47;28.01;102494.44;6198810;28;20500;-63
2021/11/22 09:54:55;;;;;;;4.72;3.67;;;;;;;20.39;28.46;102491.13;6208365;28;20324;-64
2021/11/22 09:58:16;;;;;;;5.18;3.63;;;;;;;20.76;28.16;102490.25;6206460;28;20205;-64
2021/11/22 10:01:39;;;;;;;5.00;3.22;;;;;;;22.00;26.39;102488.59;6206425;28;20206;-64
2021/11/22 10:05:23;;;;;;;3.42;2.97;;;;;;;21.62;26.88;102482.69;6200869;28;20491;-64
2021/11/22 10:08:44;;;;;;;3.75;2.75;;;;;;;20.97;27.25;102484.41;6206044;28;20240;-65
2021/11/22 10:12:09;;;;;;;3.60;2.45;;;;;;;20.83;27.13;102492.72;6200614;28;20570;-64
2021/11/22 10:15:33;;;;;;;3.60;2.13;;;;;;;22.23;26.35;102491.41;6209878;28;20221;-63
2021/11/22 10:18:58;;;;;;;4.93;3.00;;;;;;;21.77;26.28;102479.56;6206981;28;20253;-64
2021/11/22 10:22:20;;;;;;;4.35;2.88;;;;;;;21.03;26.62;102483.38;6181488;28;20241;-64
2021/11/22 10:25:43;;;;;;;5.22;4.25;;;;;;;22.71;24.84;102478.41;6216947;28;20685;-64
2021/11/22 10:29:06;;;;;;;4.18;2.90;;;;;;;22.67;24.54;102490.06;6229231;28;20224;-64
2021/11/22 10:32:34;;;;;;;2.63;2.30;;;;;;;23.18;23.95;102491.84;6226400;28;20217;-64
2021/11/22 10:35:56;;;;;;;2.65;2.45;;;;;;;22.38;24.68;102491.88;6223334;28;20557;-63
2021/11/22 10:39:19;;;;;;;5.75;2.55;;;;;;;22.30;24.20;102485.94;6223282;28;21440;-64
2021/11/22 10:42:41;;;;;;;3.55;2.50;;;;;;;24.45;22.49;102488.78;6221581;28;20212;-63
2021/11/22 10:46:05;;;;;;;6.85;5.32;;;;;;;23.78;22.83;102487.00;6225473;28;20618;-63
2021/11/22 10:49:39;;;;;;;3.05;2.08;;;;;;;22.92;22.21;102485.63;6220506;28;20253;-64
2021/11/22 10:53:01;;;;;;;2.63;1.77;;;;;;;23.33;21.83;102487.78;6227295;28;20221;-63
2021/11/22 10:56:25;;;;;;;1.67;1.52;;;;;;;23.15;22.38;102484.00;6225990;28;20278;-64
2021/11/22 10:59:46;;;;;;;6.32;2.60;;;;;;;23.52;21.35;102490.63;6228421;28;20221;-64
2021/11/22 11:03:08;;;;;;;4.00;1.67;;;;;;;23.34;21.45;102486.84;6232625;28;20212;-64
2021/11/22 11:06:52;;;;;;;2.30;1.83;;;;;;;23.61;21.22;102492.91;6231881;28;20209;-64
2021/11/22 11:10:23;;;;;;;7.07;6.10;;;;;;;23.59;20.54;102492.13;6223902;28;20232;-63
2021/11/22 11:13:46;;;;;;;20.08;18.20;;;;;;;24.51;19.66;102485.03;6228365;28;20228;-62
2021/11/22 11:17:18;;;;;;;24.00;22.00;;;;;;;23.60;20.08;102483.22;6225528;28;20209;-63
2021/11/22 11:20:48;;;;;;;3.75;3.45;;;;;;;22.95;20.43;102476.69;6232958;28;20220;-63
2021/11/22 11:24:10;;;;;;;4.22;2.70;;;;;;;24.54;19.54;102487.56;6232463;28;20302;-64
2021/11/22 11:27:32;;;;;;;3.58;1.92;;;;;;;24.49;19.37;102485.06;6228679;28;20813;-64
2021/11/22 11:30:53;;;;;;;2.05;1.80;;;;;;;23.46;20.82;102475.78;6231253;28;20560;-63
2021/11/22 11:34:16;;;;;;;3.17;1.83;;;;;;;23.94;19.59;102481.94;6232720;28;20644;-64
2021/11/22 11:37:53;;;;;;;3.65;2.03;;;;;;;25.77;18.80;102481.31;6235580;28;20562;-64
2021/11/22 11:41:30;;;;;;;4.68;2.13;;;;;;;24.68;18.55;102478.97;6236006;28;20225;-64
2021/11/22 11:45:02;;;;;;;2.20;1.85;;;;;;;24.65;18.76;102485.31;6235115;28;20493;-65
2021/11/22 11:48:41;;;;;;;2.45;1.55;;;;;;;23.33;19.78;102485.97;6225180;28;20225;-64
2021/11/22 11:52:22;;;;;;;3.33;2.13;;;;;;;25.22;18.71;102479.31;6228192;28;20225;-65
2021/11/22 11:56:05;;;;;;;3.25;1.90;;;;;;;24.35;19.46;102484.78;6221884;28;20506;-64
2021/11/22 11:59:33;;;;;;;1.77;1.25;;;;;;;24.62;17.71;102480.13;6220483;28;20255;-63
2021/11/22 12:03:03;;;;;;;2.97;1.45;;;;;;;24.52;18.54;102484.97;6231196;28;20206;-64
2021/11/22 12:06:49;;;;;;;1.85;1.30;;;;;;;24.86;18.96;102483.53;6209896;28;20217;-64
2021/11/22 12:10:16;;;;;;;3.35;1.70;;;;;;;24.33;17.71;102478.63;6234322;28;20232;-64
2021/11/22 12:13:52;;;;;;;1.95;1.42;;;;;;;24.14;18.09;102483.84;6235570;28;20225;-63
2021/11/22 12:17:13;;;;;;;1.10;1.00;;;;;;;22.73;19.12;102489.84;6236250;28;20608;-63
2021/11/22 12:21:07;;;;;;;2.25;0.90;;;;;;;22.25;19.96;102490.53;6230734;28;20225;-63
2021/11/22 12:24:38;;;;;;;2.60;1.42;;;;;;;18.82;23.94;102496.91;6217781;28;20223;-63
2021/11/22 12:27:59;;;;;;;1.63;1.45;;;;;;;17.79;25.68;102496.59;6225270;28;20940;-64
2021/11/22 12:31:28;;;;;;;3.53;1.33;;;;;;;16.71;27.74;102494.16;6222559;28;20615;-63
2021/11/22 12:34:56;;;;;;;1.77;1.20;;;;;;;16.33;28.58;102504.06;6225314;28;20225;-64
2021/11/22 12:38:21;;;;;;;2.03;0.70;;;;;;;15.79;28.79;102497.38;6223285;28;20193;-63
2021/11/22 12:41:42;;;;;;;1.60;1.13;;;;;;;15.30;28.86;102500.97;6222544;28;20232;-63
2021/11/22 12:45:07;;;;;;;2.33;1.42;;;;;;;16.15;28.67;102498.94;6228005;28;20236;-63
2021/11/22 12:48:34;;;;;;;1.60;1.30;;;;;;;15.48;29.66;102495.66;6228047;28;20189;-62
2021/11/22 12:51:56;;;;;;;1.35;0.90;;;;;;;14.79;31.20;102500.13;6225888;28;20233;-63
2021/11/22 12:55:19;;;;;;;1.70;1.40;;;;;;;15.40;31.11;102486.94;6227343;28;20221;-63
2021/11/22 12:58:40;;;;;;;3.30;1.97;;;;;;;14.08;33.31;102479.91;6225658;28;20597;-63
2021/11/22 13:02:01;;;;;;;2.40;1.10;;;;;;;14.09;33.99;102489.50;6224778;28;20189;-63
2021/11/22 13:05:50;;;;;;;4.83;1.47;;;;;;;14.35;33.87;102486.97;6222614;28;20526;-62
2021/11/22 13:09:38;;;;;;;5.17;4.70;;;;;;;14.14;34.62;102486.91;6216802;28;20230;-62
2021/11/22 13:13:09;;;;;;;5.40;4.17;;;;;;;14.28;34.29;102479.94;6228518;28;20209;-64
2021/11/22 13:16:30;;;;;;;6.40;2.33;;;;;;;14.15;34.03;102475.53;6229043;28;20605;-64
2021/11/22 13:19:57;;;;;;;3.73;2.43;;;;;;;16.69;30.24;102467.00;6218890;28;20574;-62
2021/11/22 13:23:22;;;;;;;3.03;2.03;;;;;;;15.44;32.50;102474.69;6211728;28;20197;-59
2021/11/22 13:26:45;;;;;;;4.05;2.20;;;;;;;13.83;35.62;102481.56;6216586;28;20731;-60
2021/11/22 13:30:06;;;;;;;2.78;2.05;;;;;;;16.99;32.98;102476.41;6225014;28;20735;-60
2021/11/22 13:33:29;;;;;;;4.80;1.67;;;;;;;15.21;34.11;102470.38;6213644;28;20316;-60
2021/11/22 13:36:52;;;;;;;4.93;1.40;;;;;;;13.20;37.88;102475.97;6220712;28;20217;-63
2021/11/22 13:40:14;;;;;;;3.20;1.40;;;;;;;13.92;36.69;102486.84;6224464;28;20217;-60
2021/11/22 13:43:35;;;;;;;2.10;1.20;;;;;;;13.98;36.82;102486.00;6226635;28;20209;-60
2021/11/22 13:46:57;;;;;;;3.95;1.80;;;;;;;13.33;39.21;102479.56;6223642;28;20722;-61
2021/11/22 13:50:19;;;;;;;6.57;1.70;;;;;;;13.65;41.40;102481.47;6208589;28;20590;-61
2021/11/22 13:53:40;;;;;;;2.28;1.40;;;;;;;12.79;41.70;102485.28;6212878;28;22066;-61
2021/11/22 13:57:04;;;;;;;1.77;1.67;;;;;;;12.82;38.14;102488.78;6215296;28;20201;-63
2021/11/22 14:00:25;;;;;;;2.57;1.50;;;;;;;13.22;37.72;102481.22;6209742;28;20277;-61
2021/11/22 14:03:49;;;;;;;2.03;1.30;;;;;;;12.28;39.25;102490.88;6221370;28;20244;-59
2021/11/22 14:07:12;;;;;;;2.87;0.90;;;;;;;12.24;39.80;102489.97;6226477;28;20198;-60
2021/11/22 14:10:37;;;;;;;1.90;1.20;;;;;;;11.29;42.37;102492.22;6214042;28;20744;-60
2021/11/22 14:14:02;;;;;;;2.00;1.52;;;;;;;11.09;43.22;102491.94;6223936;28;20851;-60
2021/11/22 14:17:24;;;;;;;3.57;1.63;;;;;;;11.03;43.47;102490.09;6228226;28;20833;-59
2021/11/22 14:20:48;;;;;;;2.10;1.47;;;;;;;11.33;42.73;102493.16;6220970;28;20497;-62
2021/11/22 14:24:11;;;;;;;4.07;1.50;;;;;;;11.53;42.06;102490.81;6221636;28;20929;-61
2021/11/22 14:27:32;;;;;;;4.23;1.63;;;;;;;10.48;44.97;102493.50;6224534;28;20319;-60
2021/11/22 14:30:55;;;;;;;4.40;1.50;;;;;;;10.68;45.13;102496.44;6216860;28;20232;-61
2021/11/22 14:34:18;;;;;;;4.83;2.40;;;;;;;9.71;48.02;102505.81;6214254;28;20248;-59
2021/11/22 14:37:39;;;;;;;4.53;2.40;;;;;;;10.43;46.60;102504.72;6216304;28;20204;-60
2021/11/22 14:41:18;;;;;;;4.13;2.10;;;;;;;9.76;48.19;102504.22;6221644;28;20232;-62
2021/11/22 14:44:50;;;;;;;4.10;2.03;;;;;;;9.57;48.92;102507.25;6220633;28;20301;-61
2021/11/22 14:48:18;;;;;;;3.80;1.73;;;;;;;9.18;50.67;102511.59;6224587;28;20631;-62
2021/11/22 14:51:43;;;;;;;2.50;1.57;;;;;;;8.74;53.12;102508.75;6227352;28;20220;-60
2021/11/22 14:55:14;;;;;;;4.23;1.83;;;;;;;9.40;51.20;102507.78;6226746;28;20246;-61
2021/11/22 14:58:43;;;;;;;1.80;1.27;;;;;;;9.30;51.60;102516.19;6220544;28;20300;-62
2021/11/22 15:02:07;;;;;;;3.37;1.73;;;;;;;8.64;53.98;102531.03;6224725;28;20295;-61
2021/11/22 15:05:35;;;;;;;5.40;1.87;;;;;;;8.79;53.27;102527.09;6227928;28;20240;-63
2021/11/22 15:08:59;;;;;;;3.83;2.07;;;;;;;9.24;51.87;102516.06;6218311;28;20239;-63
2021/11/22 15:12:22;;;;;;;2.30;1.57;;;;;;;8.74;53.69;102521.75;6229144;28;21144;-64
2021/11/22 15:15:43;;;;;;;4.03;2.43;;;;;;;8.98;52.73;102520.63;6218834;28;20237;-62
2021/11/22 15:19:04;;;;;;;2.87;2.17;;;;;;;8.08;56.51;102520.84;6223067;28;20225;-63
2021/11/22 15:22:28;;;;;;;5.70;2.10;;;;;;;8.45;55.66;102521.88;6225497;28;20197;-61
2021/11/22 15:25:52;;;;;;;2.57;1.53;;;;;;;9.13;53.36;102521.00;6223665;28;20256;-62
2021/11/22 15:29:18;;;;;;;4.30;2.10;;;;;;;9.15;52.94;102516.72;6225738;28;20228;-63
2021/11/22 15:32:39;;;;;;;1.93;1.70;;;;;;;8.30;55.37;102516.25;6222553;28;20232;-59
2021/11/22 15:36:01;;;;;;;3.73;2.23;;;;;;;8.36;56.13;102523.31;6225427;28;20252;-62
2021/11/22 15:39:25;;;;;;;2.27;1.57;;;;;;;8.26;56.59;102519.59;6225088;28;20323;-61
2021/11/22 15:42:46;;;;;;;2.33;2.03;;;;;;;8.99;54.11;102533.66;6222383;28;20641;-62
2021/11/22 15:46:07;;;;;;;3.03;2.00;;;;;;;9.40;52.71;102527.69;6233566;28;20225;-63
2021/11/22 15:49:29;;;;;;;3.43;1.60;;;;;;;9.33;52.83;102525.81;6232807;28;20232;-63
2021/11/22 15:52:50;;;;;;;5.10;2.33;;;;;;;8.97;54.05;102530.13;6231218;28;20633;-63